West Panama City Beach, Florida
Current Conditions -  °F | °C
As of 12:53 PM on Thursday 27 Nov 2014 (Local Time) from KECP Reporting Station
Clear Clear  
Wind Chill: 59°   Ceiling: Unl
Heat Index: 59°   Visibility: 10mi
Dew Point: 34°   Wind: 14mph
Humidity: 39%   Direction: 330°NNW
Pressure: 30.29"   Gusts: 25mph
Location:  30.3525°N, 85.9093°W
Report Text: KECP 271853Z 33012G22KT 10SM CLR 15/01 A3029 RMK AO2 SLP267 T01500011 $
Loading
Personal Weather Stations






























Interactive Weather Map New forecast layout! Learn more

10-Day Weather Forecast

Advertisements
Track Severe Weather on mobile